Time;durP1;ratioP1;P1;durP2;ratioP2;P2;SDS_P1;SDS_P2;PMS_P1;PMS_P2;Temp;Humidity;BMP_temperature;BMP_pressure;BME280_temperature;BME280_humidity;BME280_pressure;Samples;Min_cycle;Max_cycle;Signal;HPM_P1;HPM_P2
2023/12/12 00:00:19;;;;;;;;;20.33;14.67;;;;;;;;5082945;28;28605;-78
2023/12/12 00:02:44;;;;;;;;;17.33;15.33;;;;;;;;5081478;28;28695;-79
2023/12/12 00:05:09;;;;;;;;;24.33;17.33;;;;;;;;5077880;28;30305;-81
2023/12/12 00:07:35;;;;;;;;;18.33;16.33;;;;;;;;5079378;28;28948;-78
2023/12/12 00:10:00;;;;;;;;;15.00;14.33;;;;;;;;5082364;28;28469;-80
2023/12/12 00:12:25;;;;;;;;;18.67;15.33;;;;;;;;5080414;28;28729;-80
2023/12/12 00:14:50;;;;;;;;;16.67;16.00;;;;;;;;5081335;28;29130;-79
2023/12/12 00:17:16;;;;;;;;;23.00;17.33;;;;;;;;5085571;27;28952;-78
2023/12/12 00:19:42;;;;;;;;;19.33;15.33;;;;;;;;5086303;27;28466;-79
2023/12/12 00:22:08;;;;;;;;;22.00;17.00;;;;;;;;5092437;27;28619;-79
2023/12/12 00:24:33;;;;;;;;;21.33;17.67;;;;;;;;5083688;28;29056;-80
2023/12/12 00:26:58;;;;;;;;;20.67;15.33;;;;;;;;5084698;27;28984;-79
2023/12/12 00:29:23;;;;;;;;;22.33;19.00;;;;;;;;5085939;28;28887;-79
2023/12/12 00:31:49;;;;;;;;;14.33;14.33;;;;;;;;5075238;28;28762;-79
2023/12/12 00:34:14;;;;;;;;;18.00;16.33;;;;;;;;5082293;28;28755;-78
2023/12/12 00:36:39;;;;;;;;;18.33;15.00;;;;;;;;5079003;28;28414;-81
2023/12/12 00:39:04;;;;;;;;;18.00;15.00;;;;;;;;5078924;28;28570;-81
2023/12/12 00:41:33;;;;;;;;;22.00;19.67;;;;;;;;5075757;28;28623;-80
2023/12/12 00:43:58;;;;;;;;;19.67;19.00;;;;;;;;5088012;28;28670;-80
2023/12/12 00:46:24;;;;;;;;;20.33;18.33;;;;;;;;5093511;27;28513;-81
2023/12/12 00:48:49;;;;;;;;;23.33;20.33;;;;;;;;5085417;28;28461;-80
2023/12/12 00:51:14;;;;;;;;;20.33;19.33;;;;;;;;5083641;28;28113;-80
2023/12/12 00:53:39;;;;;;;;;20.67;19.00;;;;;;;;5082481;28;28587;-80
2023/12/12 00:56:05;;;;;;;;;22.00;17.67;;;;;;;;5083571;28;28692;-80
2023/12/12 00:58:30;;;;;;;;;22.33;15.00;;;;;;;;5083383;28;28570;-80
2023/12/12 01:00:55;;;;;;;;;22.00;17.33;;;;;;;;5085621;28;28789;-79
2023/12/12 01:03:20;;;;;;;;;23.00;19.00;;;;;;;;5081352;28;28495;-78
2023/12/12 01:05:45;;;;;;;;;18.33;15.00;;;;;;;;5084014;28;28355;-78
2023/12/12 01:08:11;;;;;;;;;16.00;14.33;;;;;;;;5085819;28;28937;-78
2023/12/12 01:10:36;;;;;;;;;21.00;16.67;;;;;;;;5085160;28;28414;-79
2023/12/12 01:13:04;;;;;;;;;21.00;18.33;;;;;;;;5080306;28;28504;-79
2023/12/12 01:15:29;;;;;;;;;18.67;16.33;;;;;;;;5082825;28;28606;-79
2023/12/12 01:17:54;;;;;;;;;23.00;19.00;;;;;;;;5083850;28;28741;-79
2023/12/12 01:20:20;;;;;;;;;22.00;16.33;;;;;;;;5083125;27;28580;-78
2023/12/12 01:22:45;;;;;;;;;19.33;18.33;;;;;;;;5087361;28;28937;-78
2023/12/12 01:25:10;;;;;;;;;25.67;19.67;;;;;;;;5082461;28;28472;-78
2023/12/12 01:27:36;;;;;;;;;20.00;17.33;;;;;;;;5080130;28;28516;-80
2023/12/12 01:30:01;;;;;;;;;19.00;15.67;;;;;;;;5081939;28;28453;-79
2023/12/12 01:32:26;;;;;;;;;22.33;19.33;;;;;;;;5081213;28;28597;-78
2023/12/12 01:34:51;;;;;;;;;24.00;21.67;;;;;;;;5086110;28;30376;-79
2023/12/12 01:37:17;;;;;;;;;25.00;19.00;;;;;;;;5080360;28;28718;-80
2023/12/12 01:39:42;;;;;;;;;19.33;19.33;;;;;;;;5080870;28;30522;-80
2023/12/12 01:42:07;;;;;;;;;23.67;17.67;;;;;;;;5079868;27;28533;-81
2023/12/12 01:44:32;;;;;;;;;31.33;23.33;;;;;;;;5082014;27;28586;-79
2023/12/12 01:46:58;;;;;;;;;20.00;20.00;;;;;;;;5088175;27;27996;-79
2023/12/12 01:49:23;;;;;;;;;21.67;18.33;;;;;;;;5082206;27;28894;-78
2023/12/12 01:51:49;;;;;;;;;21.00;17.67;;;;;;;;5087849;28;28511;-78
2023/12/12 01:54:16;;;;;;;;;23.00;19.00;;;;;;;;5081596;28;28581;-80
2023/12/12 01:56:43;;;;;;;;;18.00;16.67;;;;;;;;5087299;28;28480;-79
2023/12/12 01:59:08;;;;;;;;;19.33;19.33;;;;;;;;5086247;28;28306;-78
2023/12/12 02:01:34;;;;;;;;;20.00;15.67;;;;;;;;5089289;28;31105;-79
2023/12/12 02:04:00;;;;;;;;;21.00;16.33;;;;;;;;5084470;28;28414;-78
2023/12/12 02:06:25;;;;;;;;;20.67;14.67;;;;;;;;5082785;28;28853;-77
2023/12/12 02:08:54;;;;;;;;;19.00;16.33;;;;;;;;5084034;28;28689;-80
2023/12/12 02:11:19;;;;;;;;;18.67;14.67;;;;;;;;5091926;28;28390;-80
2023/12/12 02:13:45;;;;;;;;;12.00;11.00;;;;;;;;5081957;28;28486;-79
2023/12/12 02:16:11;;;;;;;;;16.00;13.00;;;;;;;;5091619;28;28491;-79
2023/12/12 02:18:36;;;;;;;;;23.33;15.67;;;;;;;;5087213;28;28547;-79
2023/12/12 02:21:02;;;;;;;;;17.33;16.00;;;;;;;;5086644;28;30014;-77
2023/12/12 02:23:28;;;;;;;;;19.00;16.33;;;;;;;;5090146;28;28449;-80
2023/12/12 02:25:54;;;;;;;;;24.00;17.67;;;;;;;;5076517;28;28843;-80
2023/12/12 02:28:20;;;;;;;;;19.00;15.00;;;;;;;;5074585;28;27925;-80
2023/12/12 02:30:45;;;;;;;;;18.00;16.33;;;;;;;;5088216;27;28382;-78
2023/12/12 02:33:10;;;;;;;;;16.33;16.33;;;;;;;;5085681;28;28461;-77
2023/12/12 02:35:35;;;;;;;;;19.67;17.67;;;;;;;;5090082;28;28217;-80
2023/12/12 02:38:01;;;;;;;;;15.00;11.67;;;;;;;;5084114;28;28442;-79
2023/12/12 02:40:26;;;;;;;;;16.67;11.67;;;;;;;;5087252;28;28565;-78
2023/12/12 02:42:52;;;;;;;;;18.00;14.00;;;;;;;;5093256;28;28824;-80
2023/12/12 02:45:17;;;;;;;;;15.00;13.00;;;;;;;;5087358;28;28679;-79
2023/12/12 02:47:43;;;;;;;;;13.67;10.00;;;;;;;;5079251;28;28589;-78
2023/12/12 02:50:08;;;;;;;;;15.33;14.33;;;;;;;;5094504;27;28821;-79
2023/12/12 02:52:33;;;;;;;;;12.33;12.33;;;;;;;;5086972;27;28571;-79
2023/12/12 02:54:59;;;;;;;;;8.67;6.67;;;;;;;;5090110;28;28457;-78
2023/12/12 02:57:24;;;;;;;;;13.00;11.67;;;;;;;;5081841;28;28599;-80
2023/12/12 02:59:49;;;;;;;;;14.33;13.00;;;;;;;;5084287;28;28548;-79
2023/12/12 03:02:15;;;;;;;;;8.67;8.67;;;;;;;;5090955;28;28312;-77
2023/12/12 03:04:43;;;;;;;;;9.67;9.67;;;;;;;;5090700;28;28768;-79
2023/12/12 03:07:08;;;;;;;;;9.67;9.00;;;;;;;;5088088;28;28523;-79
2023/12/12 03:09:34;;;;;;;;;10.33;10.33;;;;;;;;5085401;28;29118;-79
2023/12/12 03:11:59;;;;;;;;;9.67;9.67;;;;;;;;5083815;28;28535;-77
2023/12/12 03:14:27;;;;;;;;;14.33;11.33;;;;;;;;5091424;28;28222;-78
2023/12/12 03:16:53;;;;;;;;;10.67;10.67;;;;;;;;5081119;28;28548;-79
2023/12/12 03:19:18;;;;;;;;;13.67;12.00;;;;;;;;5079822;28;29936;-79
2023/12/12 03:21:43;;;;;;;;;16.67;13.00;;;;;;;;5079522;27;28819;-79
2023/12/12 03:24:08;;;;;;;;;14.00;11.00;;;;;;;;5090213;28;28838;-79
2023/12/12 03:26:34;;;;;;;;;14.00;11.33;;;;;;;;5084498;28;28570;-78
2023/12/12 03:28:59;;;;;;;;;15.33;13.33;;;;;;;;5077896;28;28435;-79
2023/12/12 03:31:24;;;;;;;;;14.00;11.67;;;;;;;;5082818;28;28799;-78
2023/12/12 03:33:49;;;;;;;;;7.33;6.00;;;;;;;;5077731;28;28818;-78
2023/12/12 03:36:14;;;;;;;;;9.33;8.33;;;;;;;;5084522;28;28888;-78
2023/12/12 03:38:40;;;;;;;;;8.67;8.67;;;;;;;;5086328;27;28600;-78
2023/12/12 03:41:05;;;;;;;;;10.33;10.00;;;;;;;;5076219;28;28694;-79
2023/12/12 03:43:30;;;;;;;;;7.67;7.67;;;;;;;;5074912;28;28704;-78
2023/12/12 03:45:55;;;;;;;;;11.67;10.00;;;;;;;;5084140;28;28464;-78
2023/12/12 03:48:21;;;;;;;;;7.67;7.67;;;;;;;;5081016;28;28449;-79
2023/12/12 03:50:49;;;;;;;;;11.33;8.33;;;;;;;;5079522;28;28583;-79
2023/12/12 03:53:14;;;;;;;;;8.00;8.00;;;;;;;;5084916;28;28605;-79
2023/12/12 03:55:40;;;;;;;;;12.33;10.00;;;;;;;;5078462;28;28781;-79
2023/12/12 03:58:05;;;;;;;;;12.00;9.00;;;;;;;;5084311;28;29676;-80
2023/12/12 04:00:30;;;;;;;;;9.00;8.67;;;;;;;;5076269;28;28490;-76
2023/12/12 04:02:56;;;;;;;;;12.00;10.33;;;;;;;;5082734;28;28693;-78
2023/12/12 04:05:22;;;;;;;;;8.33;7.33;;;;;;;;5087579;27;28529;-78
2023/12/12 04:07:47;;;;;;;;;9.67;8.00;;;;;;;;5088140;28;30028;-80
2023/12/12 04:10:12;;;;;;;;;13.00;9.33;;;;;;;;5083641;27;28642;-79
2023/12/12 04:12:38;;;;;;;;;12.67;9.67;;;;;;;;5081159;28;28610;-81
2023/12/12 04:15:04;;;;;;;;;12.67;11.33;;;;;;;;5087593;28;29767;-79
2023/12/12 04:17:30;;;;;;;;;12.67;10.00;;;;;;;;5089883;27;28668;-80
2023/12/12 04:19:55;;;;;;;;;12.00;9.00;;;;;;;;5093776;27;28566;-80
2023/12/12 04:22:21;;;;;;;;;13.33;9.00;;;;;;;;5083684;27;28560;-80
2023/12/12 04:24:46;;;;;;;;;10.00;10.00;;;;;;;;5076216;28;28595;-78
2023/12/12 04:27:11;;;;;;;;;10.33;9.33;;;;;;;;5076651;28;29177;-78
2023/12/12 04:29:37;;;;;;;;;11.67;10.33;;;;;;;;5079673;28;28583;-79
2023/12/12 04:32:02;;;;;;;;;12.00;9.33;;;;;;;;5076681;28;28655;-80
2023/12/12 04:34:32;;;;;;;;;10.33;8.33;;;;;;;;5079938;28;29256;-78
2023/12/12 04:36:57;;;;;;;;;11.67;10.00;;;;;;;;5084519;28;28401;-80
2023/12/12 04:39:22;;;;;;;;;11.00;10.00;;;;;;;;5083541;28;28842;-79
2023/12/12 04:41:48;;;;;;;;;8.00;8.00;;;;;;;;5085793;28;28746;-79
2023/12/12 04:44:13;;;;;;;;;12.33;8.33;;;;;;;;5089727;28;28564;-78
2023/12/12 04:46:38;;;;;;;;;9.33;8.33;;;;;;;;5080360;28;28602;-79
2023/12/12 04:49:04;;;;;;;;;10.00;8.33;;;;;;;;5085292;28;28859;-80
2023/12/12 04:51:29;;;;;;;;;14.67;9.67;;;;;;;;5082204;27;28829;-79
2023/12/12 04:53:54;;;;;;;;;7.67;7.33;;;;;;;;5080853;28;28681;-79
2023/12/12 04:56:19;;;;;;;;;9.00;6.33;;;;;;;;5085012;27;28727;-78
2023/12/12 04:58:46;;;;;;;;;8.33;7.67;;;;;;;;5082397;28;27878;-79
2023/12/12 05:01:11;;;;;;;;;7.67;7.67;;;;;;;;5083054;28;28615;-79
2023/12/12 05:03:36;;;;;;;;;8.33;8.00;;;;;;;;5082257;28;28856;-78
2023/12/12 05:06:01;;;;;;;;;5.33;5.00;;;;;;;;5084606;28;30183;-79
2023/12/12 05:08:27;;;;;;;;;10.00;10.00;;;;;;;;5087281;28;28959;-80
2023/12/12 05:10:52;;;;;;;;;14.33;11.00;;;;;;;;5079171;28;28772;-79
2023/12/12 05:13:18;;;;;;;;;13.33;10.00;;;;;;;;5076723;28;29748;-80
2023/12/12 05:15:43;;;;;;;;;11.67;10.33;;;;;;;;5083778;28;28885;-78
2023/12/12 05:18:08;;;;;;;;;11.00;9.00;;;;;;;;5074227;28;28849;-80
2023/12/12 05:20:33;;;;;;;;;9.67;7.67;;;;;;;;5083054;27;28743;-79
2023/12/12 05:22:59;;;;;;;;;11.33;8.00;;;;;;;;5081780;28;29375;-81
2023/12/12 05:25:24;;;;;;;;;9.67;7.67;;;;;;;;5076594;28;28425;-81
2023/12/12 05:27:49;;;;;;;;;8.33;7.00;;;;;;;;5081352;28;28635;-78
2023/12/12 05:30:15;;;;;;;;;6.00;4.67;;;;;;;;5071584;28;28524;-77
2023/12/12 05:32:40;;;;;;;;;8.00;7.00;;;;;;;;5076483;28;29280;-81
2023/12/12 05:35:08;;;;;;;;;11.00;7.67;;;;;;;;5072176;28;28501;-79
2023/12/12 05:37:36;;;;;;;;;7.33;6.33;;;;;;;;5073850;28;28721;-79
2023/12/12 05:40:02;;;;;;;;;12.00;9.33;;;;;;;;5075648;28;28577;-78
2023/12/12 05:42:27;;;;;;;;;9.33;7.33;;;;;;;;5072711;28;30185;-80
2023/12/12 05:44:52;;;;;;;;;10.33;8.67;;;;;;;;5070470;28;28595;-79
2023/12/12 05:47:18;;;;;;;;;9.00;6.33;;;;;;;;5081128;28;28908;-81
2023/12/12 05:49:43;;;;;;;;;6.33;6.00;;;;;;;;5086601;27;28851;-81
2023/12/12 05:52:08;;;;;;;;;9.00;8.00;;;;;;;;5075222;28;28391;-80
2023/12/12 05:54:33;;;;;;;;;12.33;7.67;;;;;;;;5074964;28;28410;-80
2023/12/12 05:56:59;;;;;;;;;10.33;8.67;;;;;;;;5084648;28;28840;-80
2023/12/12 05:59:24;;;;;;;;;9.00;8.67;;;;;;;;5083723;28;28436;-80
2023/12/12 06:01:49;;;;;;;;;8.33;7.33;;;;;;;;5075526;28;28856;-81
2023/12/12 06:04:15;;;;;;;;;13.00;9.00;;;;;;;;5080431;28;29519;-81
2023/12/12 06:06:44;;;;;;;;;7.67;7.67;;;;;;;;5082979;28;29425;-81
2023/12/12 06:09:10;;;;;;;;;9.33;8.33;;;;;;;;5079436;28;28953;-83
2023/12/12 06:11:36;;;;;;;;;8.67;6.67;;;;;;;;5084869;28;29865;-81
2023/12/12 06:14:03;;;;;;;;;10.00;8.67;;;;;;;;5082186;27;29800;-83
2023/12/12 06:16:28;;;;;;;;;12.33;10.33;;;;;;;;5080594;28;28995;-81
2023/12/12 06:18:54;;;;;;;;;9.00;9.00;;;;;;;;5079205;27;28813;-81
2023/12/12 06:21:19;;;;;;;;;11.33;10.33;;;;;;;;5087702;27;28673;-82
2023/12/12 06:23:44;;;;;;;;;11.67;10.67;;;;;;;;5085972;28;29801;-82
2023/12/12 06:26:09;;;;;;;;;12.00;10.00;;;;;;;;5075350;28;28529;-81
2023/12/12 06:28:35;;;;;;;;;13.00;8.00;;;;;;;;5080059;28;28443;-80
2023/12/12 06:31:01;;;;;;;;;15.33;8.33;;;;;;;;5077550;28;29479;-80
2023/12/12 06:33:28;;;;;;;;;13.67;9.00;;;;;;;;5084798;28;28420;-81
2023/12/12 06:35:54;;;;;;;;;9.00;8.00;;;;;;;;5079013;28;28926;-81
2023/12/12 06:38:19;;;;;;;;;11.67;8.33;;;;;;;;5076756;28;28792;-79
2023/12/12 06:40:45;;;;;;;;;7.67;7.67;;;;;;;;5072245;28;28828;-81
2023/12/12 06:43:11;;;;;;;;;8.00;8.00;;;;;;;;5077811;28;29450;-80
2023/12/12 06:45:37;;;;;;;;;12.00;10.33;;;;;;;;5077644;28;28417;-81
2023/12/12 06:48:02;;;;;;;;;11.00;10.00;;;;;;;;5083431;28;28500;-80
2023/12/12 06:50:28;;;;;;;;;13.33;11.33;;;;;;;;5091941;28;28562;-81
2023/12/12 06:52:53;;;;;;;;;10.33;10.00;;;;;;;;5087506;28;30069;-79
2023/12/12 06:55:18;;;;;;;;;8.67;7.67;;;;;;;;5070549;28;29666;-80
2023/12/12 06:57:44;;;;;;;;;11.67;9.33;;;;;;;;5086461;28;28410;-79
2023/12/12 07:00:09;;;;;;;;;9.33;7.33;;;;;;;;5074447;28;28560;-84
2023/12/12 07:02:34;;;;;;;;;9.33;7.33;;;;;;;;5076892;28;28505;-81
2023/12/12 07:05:00;;;;;;;;;9.00;7.00;;;;;;;;5086564;27;28561;-79
2023/12/12 07:07:26;;;;;;;;;9.00;7.00;;;;;;;;5085158;27;28694;-81
2023/12/12 07:09:51;;;;;;;;;8.67;8.67;;;;;;;;5087676;28;28510;-80
2023/12/12 07:12:16;;;;;;;;;10.67;9.33;;;;;;;;5087147;27;28869;-82
2023/12/12 07:14:42;;;;;;;;;9.00;9.00;;;;;;;;5088801;28;28417;-80
2023/12/12 07:17:07;;;;;;;;;9.67;9.67;;;;;;;;5084578;27;28714;-80
2023/12/12 07:19:34;;;;;;;;;10.67;10.67;;;;;;;;5072491;27;28449;-85
2023/12/12 07:21:59;;;;;;;;;9.67;9.00;;;;;;;;5095444;27;28980;-79
2023/12/12 07:24:24;;;;;;;;;7.33;6.00;;;;;;;;5071969;28;29216;-80
2023/12/12 07:26:50;;;;;;;;;8.00;8.00;;;;;;;;5072181;28;28554;-80
2023/12/12 07:29:19;;;;;;;;;9.33;6.00;;;;;;;;5081018;27;29244;-80
2023/12/12 07:31:56;;;;;;;;;11.33;7.33;;;;;;;;5088076;28;29937;-87
2023/12/12 07:34:21;;;;;;;;;9.75;6.50;;;;;;;;5090749;28;28841;-80
2023/12/12 07:36:47;;;;;;;;;11.00;8.00;;;;;;;;5087179;28;28706;-79
2023/12/12 07:39:13;;;;;;;;;6.00;6.00;;;;;;;;5085435;28;28687;-80
2023/12/12 07:41:47;;;;;;;;;6.67;5.67;;;;;;;;5084061;28;30072;-84
2023/12/12 07:44:12;;;;;;;;;5.50;4.00;;;;;;;;5088734;27;28879;-79
2023/12/12 07:46:38;;;;;;;;;7.33;6.00;;;;;;;;5084512;27;27831;-81
2023/12/12 07:49:03;;;;;;;;;5.00;4.33;;;;;;;;5094033;28;28527;-82
2023/12/12 07:51:29;;;;;;;;;6.67;5.67;;;;;;;;5087837;27;31063;-81
2023/12/12 07:53:55;;;;;;;;;5.00;4.00;;;;;;;;5078815;28;29174;-80
2023/12/12 07:56:20;;;;;;;;;6.00;5.00;;;;;;;;5090838;28;28518;-82
2023/12/12 07:58:45;;;;;;;;;7.67;5.00;;;;;;;;5092112;27;28584;-86
2023/12/12 08:01:11;;;;;;;;;5.33;5.33;;;;;;;;5077166;27;28533;-80
2023/12/12 08:03:37;;;;;;;;;5.00;4.67;;;;;;;;5089987;28;28974;-80
2023/12/12 08:06:03;;;;;;;;;5.67;4.33;;;;;;;;5087371;28;28881;-81
2023/12/12 08:08:28;;;;;;;;;6.00;4.67;;;;;;;;5090429;28;29695;-80
2023/12/12 08:10:53;;;;;;;;;7.00;5.33;;;;;;;;5089874;28;28860;-82
2023/12/12 08:13:19;;;;;;;;;7.00;4.33;;;;;;;;5087985;27;28481;-82
2023/12/12 08:15:44;;;;;;;;;6.33;5.00;;;;;;;;5089707;28;28739;-79
2023/12/12 08:18:11;;;;;;;;;8.33;6.00;;;;;;;;5089615;27;28642;-80
2023/12/12 08:20:36;;;;;;;;;9.33;8.67;;;;;;;;5093411;27;28794;-79
2023/12/12 08:23:04;;;;;;;;;13.33;10.67;;;;;;;;5078246;27;28409;-78
2023/12/12 08:25:29;;;;;;;;;8.67;6.00;;;;;;;;5089287;27;28588;-79
2023/12/12 08:27:56;;;;;;;;;6.67;4.00;;;;;;;;5091675;28;28829;-79
2023/12/12 08:30:22;;;;;;;;;8.00;6.67;;;;;;;;5086048;28;29468;-80
2023/12/12 08:32:48;;;;;;;;;8.00;5.67;;;;;;;;5092083;28;28451;-81
2023/12/12 08:35:14;;;;;;;;;5.00;5.00;;;;;;;;5092157;28;28516;-79
2023/12/12 08:37:40;;;;;;;;;9.00;8.00;;;;;;;;5083067;28;29536;-80
2023/12/12 08:40:06;;;;;;;;;7.67;6.00;;;;;;;;5089634;27;28461;-81
2023/12/12 08:42:32;;;;;;;;;4.33;4.00;;;;;;;;5085459;27;28731;-80
2023/12/12 08:44:57;;;;;;;;;7.67;7.67;;;;;;;;5084624;28;28469;-81
2023/12/12 08:47:23;;;;;;;;;3.00;2.00;;;;;;;;5083758;27;28593;-78
2023/12/12 08:49:48;;;;;;;;;3.33;2.00;;;;;;;;5082154;28;29635;-77
2023/12/12 08:52:14;;;;;;;;;5.67;4.00;;;;;;;;5094030;27;28571;-79
2023/12/12 08:54:42;;;;;;;;;4.00;3.00;;;;;;;;5076742;27;28476;-78
2023/12/12 08:57:09;;;;;;;;;7.00;4.67;;;;;;;;5087803;28;29350;-80
2023/12/12 08:59:38;;;;;;;;;3.00;3.00;;;;;;;;5090242;28;29329;-78
2023/12/12 09:02:03;;;;;;;;;4.25;2.75;;;;;;;;5077372;28;28456;-78
2023/12/12 09:04:29;;;;;;;;;6.33;5.67;;;;;;;;5075086;28;28503;-78
2023/12/12 09:06:54;;;;;;;;;8.00;7.33;;;;;;;;5090584;28;28607;-78
2023/12/12 09:09:19;;;;;;;;;3.00;3.00;;;;;;;;5089037;28;29784;-78
2023/12/12 09:11:46;;;;;;;;;2.00;2.00;;;;;;;;5089080;28;28483;-76
2023/12/12 09:14:12;;;;;;;;;2.25;2.25;;;;;;;;5070309;28;28459;-77
2023/12/12 09:16:37;;;;;;;;;1.00;1.00;;;;;;;;5076804;27;28654;-79
2023/12/12 09:19:02;;;;;;;;;1.00;1.00;;;;;;;;5075399;27;28469;-77
2023/12/12 09:21:27;;;;;;;;;1.00;1.00;;;;;;;;5091586;27;28737;-76
2023/12/12 09:23:53;;;;;;;;;2.75;1.75;;;;;;;;5090387;28;28865;-80
2023/12/12 09:26:18;;;;;;;;;1.00;1.00;;;;;;;;5075718;28;28855;-76
2023/12/12 09:28:44;;;;;;;;;2.00;1.00;;;;;;;;5085303;28;28912;-74
2023/12/12 09:31:09;;;;;;;;;1.00;1.00;;;;;;;;5084694;28;28771;-75
2023/12/12 09:33:35;;;;;;;;;2.50;1.50;;;;;;;;5087921;28;28491;-74
2023/12/12 09:36:00;;;;;;;;;2.00;1.00;;;;;;;;5083313;28;28516;-74
2023/12/12 09:38:25;;;;;;;;;2.33;1.33;;;;;;;;5080795;28;28824;-75
2023/12/12 09:40:51;;;;;;;;;2.00;2.00;;;;;;;;5086691;28;28776;-75
2023/12/12 09:43:18;;;;;;;;;0.00;0.00;;;;;;;;5088655;27;28381;-75
2023/12/12 09:45:45;;;;;;;;;3.00;1.00;;;;;;;;5078844;28;29839;-75
2023/12/12 09:48:12;;;;;;;;;1.50;0.25;;;;;;;;5080891;28;30033;-76
2023/12/12 09:50:37;;;;;;;;;0.25;0.25;;;;;;;;5087038;28;28531;-75
2023/12/12 09:53:03;;;;;;;;;1.00;0.67;;;;;;;;5087496;27;28636;-76
2023/12/12 09:55:28;;;;;;;;;2.33;2.33;;;;;;;;5087214;28;28487;-75
2023/12/12 09:57:54;;;;;;;;;1.00;1.00;;;;;;;;5088869;27;28852;-75
2023/12/12 10:00:21;;;;;;;;;3.00;0.50;;;;;;;;5086483;28;29733;-75
2023/12/12 10:02:47;;;;;;;;;0.75;0.00;;;;;;;;5086023;28;28489;-74
2023/12/12 10:05:13;;;;;;;;;1.00;1.00;;;;;;;;5085608;27;30231;-75
2023/12/12 10:07:40;;;;;;;;;1.20;0.80;;;;;;;;5086499;27;31031;-75
2023/12/12 10:10:07;;;;;;;;;1.00;1.00;;;;;;;;5087217;28;28504;-75
2023/12/12 10:12:33;;;;;;;;;1.00;1.00;;;;;;;;5087499;28;28804;-77
2023/12/12 10:14:58;;;;;;;;;1.00;1.00;;;;;;;;5085709;28;29276;-75
2023/12/12 10:17:25;;;;;;;;;1.00;1.00;;;;;;;;5085957;28;29388;-73
2023/12/12 10:20:00;;;;;;;;;1.00;1.00;;;;;;;;5090266;27;28448;-74
2023/12/12 10:22:31;;;;;;;;;0.00;0.00;;;;;;;;5080663;27;28883;-74
2023/12/12 10:25:14;;;;;;;;;1.40;0.40;;;;;;;;5075635;28;28523;-75
2023/12/12 10:27:43;;;;;;;;;4.25;0.75;;;;;;;;5072936;28;28592;-74
2023/12/12 10:30:09;;;;;;;;;0.00;0.00;;;;;;;;5085196;28;28604;-75
2023/12/12 10:32:38;;;;;;;;;1.00;1.00;;;;;;;;5084997;27;28500;-75
2023/12/12 10:35:03;;;;;;;;;0.20;0.20;;;;;;;;5085718;28;29913;-75
2023/12/12 10:37:28;;;;;;;;;2.00;2.00;;;;;;;;5087350;27;29390;-75
2023/12/12 10:39:54;;;;;;;;;0.25;0.00;;;;;;;;5086961;28;28582;-74
2023/12/12 10:42:19;;;;;;;;;1.75;1.75;;;;;;;;5088094;28;28566;-74
2023/12/12 10:44:48;;;;;;;;;2.00;0.75;;;;;;;;5087839;28;28854;-75
2023/12/12 10:47:14;;;;;;;;;1.60;0.60;;;;;;;;5085690;28;30219;-75
2023/12/12 10:49:42;;;;;;;;;0.00;0.00;;;;;;;;5087583;28;28502;-75
2023/12/12 10:52:08;;;;;;;;;2.00;2.00;;;;;;;;5089573;27;28937;-74
2023/12/12 10:54:35;;;;;;;;;2.00;1.33;;;;;;;;5087293;28;28697;-73
2023/12/12 10:57:01;;;;;;;;;0.75;0.75;;;;;;;;5085960;28;29132;-74
2023/12/12 10:59:27;;;;;;;;;1.80;1.80;;;;;;;;5087232;28;28413;-74
2023/12/12 11:01:53;;;;;;;;;1.75;0.00;;;;;;;;5084180;28;28390;-75
2023/12/12 11:04:20;;;;;;;;;1.00;1.00;;;;;;;;5085431;27;29411;-75
2023/12/12 11:06:46;;;;;;;;;2.25;2.25;;;;;;;;5073748;27;29984;-75
2023/12/12 11:09:13;;;;;;;;;1.00;1.00;;;;;;;;5090757;28;28467;-76
2023/12/12 11:11:40;;;;;;;;;0.00;0.00;;;;;;;;5087290;27;28786;-77
2023/12/12 11:14:07;;;;;;;;;2.00;1.00;;;;;;;;5084265;27;28918;-75
2023/12/12 11:16:32;;;;;;;;;0.60;0.00;;;;;;;;5092764;27;28957;-78
2023/12/12 11:18:59;;;;;;;;;0.50;0.25;;;;;;;;5086541;27;28616;-76
2023/12/12 11:21:44;;;;;;;;;1.00;1.00;;;;;;;;5087979;27;28461;-86
2023/12/12 11:24:10;;;;;;;;;2.20;1.00;;;;;;;;5089534;27;29333;-77
2023/12/12 11:26:36;;;;;;;;;2.00;0.00;;;;;;;;5086627;27;28562;-77
2023/12/12 11:29:04;;;;;;;;;3.00;1.00;;;;;;;;5083923;27;28840;-79
2023/12/12 11:31:33;;;;;;;;;2.00;2.00;;;;;;;;5075857;28;28620;-77
2023/12/12 11:34:06;;;;;;;;;3.00;1.20;;;;;;;;5070093;28;29533;-77
2023/12/12 11:36:51;;;;;;;;;3.60;1.40;;;;;;;;5076721;27;30302;-78
2023/12/12 11:39:26;;;;;;;;;2.00;1.00;;;;;;;;5083769;27;28441;-77
2023/12/12 11:41:52;;;;;;;;;2.00;1.00;;;;;;;;5083850;27;28649;-77
2023/12/12 11:44:18;;;;;;;;;1.75;1.00;;;;;;;;5092539;27;28695;-79
2023/12/12 11:46:44;;;;;;;;;4.60;3.00;;;;;;;;5095473;27;28538;-78
2023/12/12 11:49:19;;;;;;;;;5.00;2.25;;;;;;;;5083037;27;28830;-78
2023/12/12 11:51:49;;;;;;;;;2.40;1.40;;;;;;;;5091006;27;28835;-79
2023/12/12 11:54:21;;;;;;;;;2.00;2.00;;;;;;;;5089423;27;28532;-77
2023/12/12 11:56:47;;;;;;;;;3.20;1.80;;;;;;;;5083171;27;28531;-80
2023/12/12 11:59:20;;;;;;;;;1.50;1.50;;;;;;;;5092754;27;28885;-79
2023/12/12 12:01:45;;;;;;;;;3.25;3.25;;;;;;;;5079828;27;28537;-78
2023/12/12 12:04:10;;;;;;;;;4.33;2.67;;;;;;;;5086779;27;30057;-80
2023/12/12 12:06:35;;;;;;;;;4.00;1.67;;;;;;;;5078385;28;30917;-76
2023/12/12 12:09:01;;;;;;;;;1.33;0.67;;;;;;;;5077374;28;28588;-80
2023/12/12 12:11:35;;;;;;;;;1.00;1.00;;;;;;;;5071803;27;28782;-78
2023/12/12 12:14:00;;;;;;;;;2.50;1.00;;;;;;;;5080118;27;28635;-77
2023/12/12 12:16:26;;;;;;;;;1.00;1.00;;;;;;;;5079539;27;28867;-75
2023/12/12 12:18:51;;;;;;;;;0.75;0.00;;;;;;;;5090852;28;28442;-83
2023/12/12 12:21:17;;;;;;;;;1.00;1.00;;;;;;;;5098756;27;28561;-78
2023/12/12 12:23:42;;;;;;;;;2.67;0.00;;;;;;;;5088943;27;29255;-78
2023/12/12 12:26:08;;;;;;;;;1.00;1.00;;;;;;;;5083519;27;28539;-78
2023/12/12 12:28:33;;;;;;;;;1.75;1.75;;;;;;;;5080836;28;29462;-78
2023/12/12 12:30:59;;;;;;;;;1.00;1.00;;;;;;;;5088548;28;28375;-78
2023/12/12 12:33:34;;;;;;;;;4.00;3.00;;;;;;;;5088822;28;30561;-79
2023/12/12 12:35:59;;;;;;;;;4.00;3.00;;;;;;;;5087563;28;28877;-78
2023/12/12 12:38:25;;;;;;;;;6.00;3.00;;;;;;;;5087382;27;28658;-78
2023/12/12 12:40:51;;;;;;;;;3.33;3.33;;;;;;;;5089309;28;28617;-77
2023/12/12 12:43:22;;;;;;;;;4.33;2.67;;;;;;;;5088053;28;28492;-76
2023/12/12 12:45:47;;;;;;;;;4.50;2.75;;;;;;;;5077991;28;28916;-83
2023/12/12 12:48:16;;;;;;;;;2.67;2.67;;;;;;;;5086198;28;28905;-83
2023/12/12 12:50:42;;;;;;;;;2.00;2.00;;;;;;;;5093588;27;28296;-78
2023/12/12 12:53:08;;;;;;;;;3.00;1.67;;;;;;;;5081149;27;28526;-77
2023/12/12 12:55:33;;;;;;;;;1.00;1.00;;;;;;;;5078861;28;28568;-77
2023/12/12 12:57:59;;;;;;;;;3.00;3.00;;;;;;;;5074573;28;28814;-77
2023/12/12 13:00:24;;;;;;;;;2.25;2.25;;;;;;;;5079009;27;28548;-76
2023/12/12 13:02:49;;;;;;;;;2.00;1.00;;;;;;;;5074514;28;28793;-76
2023/12/12 13:05:17;;;;;;;;;3.00;2.00;;;;;;;;5087000;27;29781;-77
2023/12/12 13:07:42;;;;;;;;;3.00;2.00;;;;;;;;5088635;28;28496;-75
2023/12/12 13:10:10;;;;;;;;;3.00;2.67;;;;;;;;5084096;28;28547;-76
2023/12/12 13:12:35;;;;;;;;;3.00;2.75;;;;;;;;5087326;27;29337;-77
2023/12/12 13:15:01;;;;;;;;;2.00;2.00;;;;;;;;5080100;28;30155;-78
2023/12/12 13:17:26;;;;;;;;;1.25;1.25;;;;;;;;5086445;28;28587;-76
2023/12/12 13:19:51;;;;;;;;;0.33;0.33;;;;;;;;5082008;27;28453;-76
2023/12/12 13:22:16;;;;;;;;;1.00;1.00;;;;;;;;5095411;27;28461;-77
2023/12/12 13:24:42;;;;;;;;;2.00;1.00;;;;;;;;5088565;27;28696;-77
2023/12/12 13:27:07;;;;;;;;;0.00;0.00;;;;;;;;5088040;28;28575;-76
2023/12/12 13:29:32;;;;;;;;;2.00;2.00;;;;;;;;5086647;28;28622;-77
2023/12/12 13:31:57;;;;;;;;;1.67;1.33;;;;;;;;5088833;28;28507;-78
2023/12/12 13:34:23;;;;;;;;;4.00;0.67;;;;;;;;5075261;28;29431;-77
2023/12/12 13:36:48;;;;;;;;;3.33;1.00;;;;;;;;5089410;28;28410;-79
2023/12/12 13:39:13;;;;;;;;;1.33;1.00;;;;;;;;5088529;28;28593;-76
2023/12/12 13:41:39;;;;;;;;;0.67;0.67;;;;;;;;5088557;28;28465;-75
2023/12/12 13:44:05;;;;;;;;;2.75;1.00;;;;;;;;5087973;27;28400;-77
2023/12/12 13:46:30;;;;;;;;;2.00;1.33;;;;;;;;5082706;28;28562;-77
2023/12/12 13:48:55;;;;;;;;;3.00;2.00;;;;;;;;5088053;28;28436;-76
2023/12/12 13:51:21;;;;;;;;;0.33;0.33;;;;;;;;5086543;28;29605;-77
2023/12/12 13:53:52;;;;;;;;;2.00;1.00;;;;;;;;5088326;28;29539;-77
2023/12/12 13:56:17;;;;;;;;;1.00;1.00;;;;;;;;5092975;28;28505;-76
2023/12/12 13:58:42;;;;;;;;;2.67;1.00;;;;;;;;5092259;27;28519;-79
2023/12/12 14:01:08;;;;;;;;;3.00;1.67;;;;;;;;5091261;27;28999;-78
2023/12/12 14:03:33;;;;;;;;;4.00;2.33;;;;;;;;5091893;28;30933;-77
2023/12/12 14:05:58;;;;;;;;;2.00;2.00;;;;;;;;5080201;28;28549;-78
2023/12/12 14:08:25;;;;;;;;;3.67;1.33;;;;;;;;5091841;27;28322;-80
2023/12/12 14:10:50;;;;;;;;;2.50;2.25;;;;;;;;5094879;28;28381;-78
2023/12/12 14:13:16;;;;;;;;;5.00;2.00;;;;;;;;5094352;28;30339;-80
2023/12/12 14:15:41;;;;;;;;;2.00;2.00;;;;;;;;5084921;28;28411;-79
2023/12/12 14:18:06;;;;;;;;;2.00;1.00;;;;;;;;5095160;28;28730;-79
2023/12/12 14:20:32;;;;;;;;;3.00;1.00;;;;;;;;5095214;28;28405;-78
2023/12/12 14:22:58;;;;;;;;;2.00;1.50;;;;;;;;5088464;28;30231;-78
2023/12/12 14:25:24;;;;;;;;;2.33;1.33;;;;;;;;5088496;28;27898;-78